Airfield :
LOGIN :

Register | Disclaimer

   EN    FR    IT 

 










Legend :    VFR   Marginal VFR   IFR   Intensive IFR   Very Intensive IFR
Visi :
Ceiling :
>= 8 km
>= 3000ft
5 to 8 km
1000 to 3000 ft
1500m to 5 km
500 to 1000 ft
800 to 1500m
200 to 500 ft
< 800m
< 200 ft
Symbols :   Thunderstorms  Fog  Heavy snow  Heavy precipitations  Wind > 20 kt
SIGMETs :     Misc.  Thunderstorms  Icing  Turbulence  Mountain Waves  Volcanic Ashes






- Airport Elevation : 425 ft
- IATA code : DTM


EDLW - Dortmund

CURRENT METAR :
  • 140620Z 15009KT CAVOK 05/02 Q1001

EXPIRED METARs :
  • 140550Z 15012KT CAVOK 05/02 Q1001
  • 140520Z 12008KT CAVOK 04/02 Q1001
  • 140450Z 12007KT CAVOK 04/02 Q1001
  • 140420Z 11004KT 080V150 9999 FEW035 04/01 Q1001
  • 140350Z AUTO 13005KT 100V160 9999 // FEW036/// 04/02 Q1000

TAF TAF EDLW
Valid from the 14 at 06:00 until the 15 at 06:00 UTC


140500Z 1406/1506 13007KT 9999 FEW035
BECMG 1411/1414 07007KT



MET'MAP, your aeronautical weather chart ! - Copyright ORBIFLY December 2007 - Disclaimer

ORBIFLY MET'MAP TEAM :

Programming & Development : Alexandra Zaïnal
Concept & Development : Baudouin d'Aumeries
Co-Development & Prog : Marc-Olivier Méhu
Technical & hardware support : Manuel Goepfert

Contact : metmap@orbifly.com




SOURCES & CREDITS :

   NOAA